Plainview, Missouri
Current Conditions -  °F | °C
As of 2:55 AM on Monday 20 Oct 2014 (Local Time) from KIRK Reporting Station
Clear Clear  
Wind Chill: 56°   Ceiling: Unl
Heat Index: 56°   Visibility: 10mi
Dew Point: 50°   Wind: 13mph
Humidity: 80%   Direction: 250°WSW
Pressure: 29.95"   Gusts: 20mph
Location:  39.9265°N, 92.4529°W
Report Text: KIRK 200755Z AUTO 25011G17KT 10SM CLR 13/10 A2995 RMK AO2 SLP145 T01330100
Loading
Personal Weather Stations






























Interactive Weather Map New forecast layout! Learn more

10-Day Weather Forecast

Advertisements
Track Severe Weather on mobile